Rms Queen Mary 2 — ZCEF6 — position and weather

sailwx.info

Track history (hours):
 
Tides and Currents Weather Stations Pressure Air Temp Water Temp Dewpoint Dewpoint Depression Visibility Wind Speed Wind Dir Waves Ship Positions

Rms Queen Mary 2

Last reported at 2017-Jul-22 04:32 UTC. Time now 2017-Jul-22 18:33 UTC.
Position N 49°48' W 005°27'.

Length 345 m; draft 10.4 m.

Type: Passenger vessel. MMSI: 310627000.

Date/timePositionNaut miles runAvg speedWind from/ knotsBaromVisibWave heightAir tempDewpointWater temp
2017-Jul-22 04:32N 49°48' W 005°27'018.5
2017-Jul-22 04:30N 49°48' W 005°27'1018.4
2017-Jul-22 03:59N 49°50' W 005°12'918.3
2017-Jul-22 03:30N 49°52' W 004°59'918.5
2017-Jul-22 03:00N 49°54' W 004°45'918.6
2017-Jul-22 02:30N 49°56' W 004°31'1019.2
2017-Jul-22 02:00N 49°58' W 004°16'1019.6
2017-Jul-22 01:30N 50°01' W 004°01'1020.4
2017-Jul-22 01:00N 50°03' W 003°46'1121.4
2017-Jul-22 00:30N 50°06' W 003°30'1121.4
2017-Jul-22 00:00N 50°07' W 003°13'1121.7
2017-Jul-21 23:30N 50°11' W 002°57'1121.7
2017-Jul-21 23:00N 50°14' W 002°41'1121.5
2017-Jul-21 22:30N 50°17' W 002°25'2120.1
2017-Jul-21 21:26N 50°21' W 001°52'818.2
2017-Jul-21 21:01N 50°23' W 001°40'1817.2
2017-Jul-21 19:57N 50°30' W 001°14'815.9
2017-Jul-21 19:29N 50°33' W 001°03'713.6
2017-Jul-21 19:00N 50°38' W 000°57'3 6.6
2017-Jul-21 18:31N 50°41' W 000°57'815.2
2017-Jul-21 18:01N 50°45' W 001°07'714.9
2017-Jul-21 17:30N 50°48' W 001°18'4 8.3
2017-Jul-21 17:00N 50°51' W 001°21'3 5.4
2017-Jul-21 16:30N 50°53' W 001°24'0 0.4
2017-Jul-21 16:00N 50°54' W 001°24'0 0.0
2017-Jul-21 15:03N 50°54' W 001°24'0 0.0
2017-Jul-21 14:57N 50°54' W 001°24'0 0.0
2017-Jul-21 14:21N 50°54' W 001°24'0 0.0
2017-Jul-21 13:57N 50°54' W 001°24'0 0.0
2017-Jul-21 13:18N 50°54' W 001°24'0 0.0
2017-Jul-21 07:18N 50°54' W 001°24'0 0.0
2017-Jul-21 06:45N 50°54' W 001°24'0 0.0
2017-Jul-21 06:27N 50°54' W 001°24'0 0.0
2017-Jul-21 05:19N 50°54' W 001°24'0 1.3
2017-Jul-21 04:57N 50°53' W 001°24'3 7.5
2017-Jul-21 04:30N 50°51' W 001°20'4 8.6
2017-Jul-21 04:01N 50°47' W 001°19'714.5
2017-Jul-21 03:30N 50°45' W 001°07'815.3
2017-Jul-21 03:00N 50°42' W 000°57'510.0
2017-Jul-21 02:31N 50°37' W 000°54'611.9
2017-Jul-21 02:00N 50°33' W 000°47'715.0
2017-Jul-21 01:31N 50°33' W 000°35'918.8
2017-Jul-21 01:00N 50°32' W 000°20'1019.4
2017-Jul-21 00:31N 50°32' W 000°05'1019.7
2017-Jul-21 00:00N 50°33' E 000°11'1019.6
2017-Jul-20 23:30N 50°36' E 000°26'919.1
2017-Jul-20 23:01N 50°39' E 000°39'918.5
2017-Jul-20 22:31N 50°45' E 000°51'1419.6
2017-Jul-20 21:47N 50°52' E 001°11'619.9
2017-Jul-20 21:31N 50°55' E 001°18'1019.1
2017-Jul-20 21:01N 51°02' E 001°28'1019.1
2017-Jul-20 20:31N 51°09' E 001°39'1019.6
2017-Jul-20 20:01N 51°16' E 001°48'1021.0
2017-Jul-20 19:31N 51°25' E 001°57'1121.9
2017-Jul-20 19:01N 51°33' E 002°09'1122.8
2017-Jul-20 18:31N 51°42' E 002°21'3220.8
2017-Jul-20 17:00N 52°12' E 002°36'34921.4 280 / 251009.310.8 17.511.116.5
2017-Jul-20 00:39N 57°58' E 003°59'821.8
2017-Jul-20 00:18N 58°06' E 003°59'721.9
2017-Jul-19 23:59N 58°13' E 003°60'1122.0
2017-Jul-19 23:30N 58°23' E 004°00'1020.6
2017-Jul-19 23:01N 58°33' E 004°01'12421.5
2017-Jul-19 17:15N 60°37' E 004°22'521.6
2017-Jul-19 17:00N 60°41' E 004°28'816.6
2017-Jul-19 16:30N 60°44' E 004°44'714.0
2017-Jul-19 16:00N 60°39' E 004°52'713.4
2017-Jul-19 15:30N 60°32' E 004°56'816.6
2017-Jul-19 15:00N 60°25' E 005°04'5 9.4
2017-Jul-19 14:30N 60°24' E 005°14'2 4.6
2017-Jul-19 14:00N 60°23' E 005°18'0 0.3
2017-Jul-19 13:28N 60°23' E 005°19'0 0.0
2017-Jul-19 12:58N 60°23' E 005°19'0 0.0
2017-Jul-19 12:28N 60°23' E 005°19'0 0.0
2017-Jul-19 11:58N 60°23' E 005°19'0 0.0
2017-Jul-19 11:28N 60°23' E 005°19'0 0.0
2017-Jul-19 10:58N 60°23' E 005°19'0 0.0
2017-Jul-19 10:28N 60°23' E 005°19'0 0.0
2017-Jul-19 09:58N 60°23' E 005°19'0 0.0
2017-Jul-19 09:28N 60°23' E 005°19'0 0.0
2017-Jul-19 08:58N 60°23' E 005°19'0 0.0
2017-Jul-19 08:28N 60°23' E 005°19'0 0.0
2017-Jul-19 07:58N 60°23' E 005°19'0 0.0
2017-Jul-19 07:28N 60°23' E 005°19'0 0.0
2017-Jul-19 06:58N 60°23' E 005°19'0 0.0
2017-Jul-19 06:28N 60°23' E 005°19'0 0.0
2017-Jul-19 05:58N 60°23' E 005°19'0 0.0
2017-Jul-19 05:28N 60°23' E 005°19'0 0.0
2017-Jul-19 04:58N 60°23' E 005°19'0 0.0
2017-Jul-19 04:27N 60°23' E 005°19'1 2.0
2017-Jul-19 04:00N 60°24' E 005°17'4 7.7
2017-Jul-19 03:30N 60°23' E 005°09'510.3
2017-Jul-19 03:00N 60°27' E 005°01'714.8
2017-Jul-19 02:30N 60°34' E 004°55'612.6
2017-Jul-19 02:00N 60°39' E 004°51'713.7
2017-Jul-19 01:30N 60°45' E 004°41'714.2
2017-Jul-19 01:00N 60°45' E 004°27'9 4.2
2017-Jul-18 22:49N 60°52' E 004°16'515.2
2017-Jul-18 22:30N 60°51' E 004°26'815.2
2017-Jul-18 22:00N 60°55' E 004°40'917.0
2017-Jul-18 21:30N 61°01' E 004°52'918.2
2017-Jul-18 21:00N 61°06' E 005°08'917.7
2017-Jul-18 20:30N 61°04' E 005°25'918.0
2017-Jul-18 20:00N 61°07' E 005°42'917.8
2017-Jul-18 19:30N 61°08' E 006°00'917.5
2017-Jul-18 19:00N 61°07' E 006°18'815.7
2017-Jul-18 18:30N 61°09' E 006°34'714.4
2017-Jul-18 18:00N 61°10' E 006°49'816.8
2017-Jul-18 17:30N 61°04' E 007°01'714.1
2017-Jul-18 17:00N 60°57' E 007°07'4 8.2
2017-Jul-18 16:30N 60°53' E 007°09'2 3.0
2017-Jul-18 15:59N 60°52' E 007°07'0 0.2
2017-Jul-18 15:28N 60°52' E 007°07'0 0.0
2017-Jul-18 14:58N 60°52' E 007°07'0 0.0
2017-Jul-18 13:58N 60°52' E 007°07'0 0.0
2017-Jul-18 13:28N 60°52' E 007°07'0 0.0
2017-Jul-18 12:58N 60°52' E 007°07'0 0.0
2017-Jul-18 12:28N 60°52' E 007°07'0 0.0
2017-Jul-18 11:58N 60°52' E 007°07'0 0.0
2017-Jul-18 11:28N 60°52' E 007°07'0 0.0
2017-Jul-18 10:58N 60°52' E 007°07'0 0.0
2017-Jul-18 10:28N 60°52' E 007°07'0 0.0
2017-Jul-18 09:58N 60°52' E 007°07'0 0.0
2017-Jul-18 09:28N 60°52' E 007°07'0 0.0
2017-Jul-18 08:58N 60°52' E 007°07'0 0.0
2017-Jul-18 08:28N 60°52' E 007°07'0 0.0
2017-Jul-18 07:58N 60°52' E 007°07'0 0.0
2017-Jul-18 07:28N 60°52' E 007°07'0 0.0
2017-Jul-18 06:58N 60°52' E 007°07'0 0.0
2017-Jul-18 06:28N 60°52' E 007°07'0 0.0
2017-Jul-18 05:58N 60°52' E 007°07'0 0.1
2017-Jul-18 05:30N 60°52' E 007°07'1 2.3
2017-Jul-18 05:00N 60°53' E 007°08'4 7.8
2017-Jul-18 04:30N 60°57' E 007°10'5 9.6
2017-Jul-18 04:00N 61°00' E 007°03'713.8
2017-Jul-18 03:30N 61°06' E 006°56'714.1
2017-Jul-18 03:00N 61°10' E 006°44'510.1
2017-Jul-18 02:30N 61°09' E 006°34'713.4
2017-Jul-18 02:00N 61°06' E 006°22'814.9
2017-Jul-18 01:30N 61°08' E 006°07'816.6
2017-Jul-18 01:00N 61°08' E 005°50'816.2
2017-Jul-18 00:30N 61°06' E 005°34'715.3
2017-Jul-18 00:00N 61°04' E 005°18'815.9
2017-Jul-17 23:30N 61°09' E 005°05'611.7
2017-Jul-17 23:00N 61°13' E 004°56'917.5
2017-Jul-17 22:30N 61°14' E 004°38'917.1
2017-Jul-17 22:00N 61°16' E 004°21'918.4
2017-Jul-17 21:30N 61°25' E 004°21'917.8
2017-Jul-17 21:00N 61°34' E 004°22'816.4
2017-Jul-17 20:30N 61°42' E 004°24'918.2
2017-Jul-17 20:00N 61°51' E 004°32'917.2
2017-Jul-17 19:30N 61°57' E 004°43'714.7
2017-Jul-17 19:00N 61°57' E 004°59'713.9
2017-Jul-17 18:30N 61°54' E 005°13'816.2
2017-Jul-17 18:00N 61°55' E 005°30'6 0.2
2017-Jul-16 11:34N 61°54' E 005°42'115.6
2017-Jul-16 11:30N 61°54' E 005°40'815.4
2017-Jul-16 11:00N 61°55' E 005°23'714.5
2017-Jul-16 10:30N 61°54' E 005°08'713.6
2017-Jul-16 10:00N 61°58' E 004°56'714.4
2017-Jul-16 09:29N 61°57' E 004°40'714.9
2017-Jul-16 09:00N 61°51' E 004°30'816.9
2017-Jul-16 08:30N 61°44' E 004°23'6217.6
2017-Jul-16 05:00N 60°42' E 004°12'9316.3 250 / 171009.310.8 16.010.312.3
2017-Jul-15 23:17N 59°11' E 004°48'517.7
2017-Jul-15 23:00N 59°08' E 004°56'817.1
2017-Jul-15 22:30N 59°06' E 005°12'816.9
2017-Jul-15 22:00N 59°07' E 005°29'815.7
2017-Jul-15 21:31N 59°01' E 005°39'3 6.3
2017-Jul-15 20:58N 58°58' E 005°44'0 0.0
2017-Jul-15 20:28N 58°58' E 005°44'0 0.0
2017-Jul-15 19:58N 58°58' E 005°44'0 0.0
2017-Jul-15 19:28N 58°58' E 005°44'0 0.0
2017-Jul-15 18:58N 58°58' E 005°44'0 0.0
2017-Jul-15 18:28N 58°58' E 005°44'0 0.0
2017-Jul-15 17:58N 58°58' E 005°44'0 0.0
2017-Jul-15 17:28N 58°58' E 005°44'0 0.0
2017-Jul-15 16:58N 58°58' E 005°44'0 0.0
2017-Jul-15 16:28N 58°58' E 005°44'0 0.0
2017-Jul-15 15:58N 58°58' E 005°44'0 0.0
2017-Jul-15 15:28N 58°58' E 005°44'0 0.0
2017-Jul-15 14:58N 58°58' E 005°44'0 0.0
2017-Jul-15 13:58N 58°58' E 005°44'0 0.0
2017-Jul-15 13:28N 58°58' E 005°44'0 0.0
2017-Jul-15 12:58N 58°58' E 005°44'0 0.0
2017-Jul-15 12:28N 58°58' E 005°44'0 0.0
2017-Jul-15 11:58N 58°58' E 005°44'0 0.0
2017-Jul-15 11:28N 58°58' E 005°44'0 0.0
2017-Jul-15 10:58N 58°58' E 005°44'0 0.0
2017-Jul-15 10:28N 58°58' E 005°44'0 0.0
2017-Jul-15 09:58N 58°58' E 005°44'0 0.0
2017-Jul-15 09:28N 58°58' E 005°44'0 0.0
2017-Jul-15 08:58N 58°58' E 005°44'0 0.0
2017-Jul-15 08:28N 58°58' E 005°44'0 0.0
2017-Jul-15 07:58N 58°58' E 005°44'0 0.0
2017-Jul-15 07:28N 58°58' E 005°44'0 0.0
2017-Jul-15 06:58N 58°58' E 005°44'0 0.0
2017-Jul-15 06:28N 58°58' E 005°44'0 0.0
2017-Jul-15 06:00N 58°58' E 005°44'0 0.3
2017-Jul-15 05:30N 58°59' E 005°44'3 6.5
2017-Jul-15 05:00N 59°01' E 005°39'714.6
2017-Jul-15 04:30N 59°06' E 005°30'611.5
2017-Jul-15 04:00N 59°04' E 005°19'510.8
2017-Jul-15 03:30N 59°01' E 005°11'714.6
2017-Jul-15 03:00N 58°54' E 005°08'714.8
2017-Jul-15 02:31N 58°47' E 005°06'714.6
2017-Jul-15 02:00N 58°39' E 005°04'714.6
2017-Jul-15 01:30N 58°32' E 005°02'917.7
2017-Jul-15 01:00N 58°23' E 004°59'35118.4
2017-Jul-14 06:00N 52°42' E 002°36'6418.4 270 / 201014.610.8 17.213.315.7
2017-Jul-14 02:30N 51°38' E 002°23'1021.1
2017-Jul-14 02:00N 51°30' E 002°13'1020.9
2017-Jul-14 01:30N 51°21' E 002°03'1121.1
2017-Jul-14 01:00N 51°14' E 001°51'1021.0
2017-Jul-14 00:30N 51°06' E 001°40'1020.8
2017-Jul-14 00:00N 50°58' E 001°30'1019.9
2017-Jul-13 23:30N 50°49' E 001°23'1019.5
2017-Jul-13 23:00N 50°40' E 001°16'1020.7
2017-Jul-13 22:30N 50°33' E 001°04'1120.5
2017-Jul-13 21:59N 50°29' E 000°49'1020.8
2017-Jul-13 21:30N 50°27' E 000°33'1120.6
2017-Jul-13 20:58N 50°24' E 000°17'920.3
2017-Jul-13 20:30N 50°22' E 000°02'1019.7
2017-Jul-13 20:00N 50°24' W 000°13'1019.6
2017-Jul-13 19:30N 50°28' W 000°26'918.5
2017-Jul-13 19:00N 50°33' W 000°39'917.7
2017-Jul-13 18:30N 50°37' W 000°51'612.5
2017-Jul-13 18:00N 50°42' W 000°57'917.2
2017-Jul-13 17:30N 50°46' W 001°10'611.7
2017-Jul-13 17:01N 50°48' W 001°18'5 9.6
2017-Jul-13 16:30N 50°52' W 001°22'2 3.6
2017-Jul-13 15:59N 50°53' W 001°24'0 0.0
2017-Jul-13 15:26N 50°53' W 001°24'0 0.0
2017-Jul-13 14:59N 50°53' W 001°24'0 0.0
2017-Jul-13 14:29N 50°53' W 001°24'0 0.0
2017-Jul-13 13:59N 50°53' W 001°24'0 0.0
2017-Jul-13 13:20N 50°53' W 001°24'0 0.0
2017-Jul-13 12:50N 50°53' W 001°24'0 0.0
2017-Jul-13 12:26N 50°53' W 001°24'0 0.0
2017-Jul-13 11:50N 50°53' W 001°24'0 0.0
2017-Jul-13 11:29N 50°53' W 001°24'0 0.0
2017-Jul-13 10:56N 50°53' W 001°24'0 0.0
2017-Jul-13 10:20N 50°53' W 001°24'0 0.0
2017-Jul-13 09:47N 50°53' W 001°24'0 0.0
2017-Jul-13 09:29N 50°53' W 001°24'0 0.0
2017-Jul-13 08:56N 50°53' W 001°24'0 0.0
2017-Jul-13 08:29N 50°53' W 001°24'0 0.0
2017-Jul-13 07:56N 50°53' W 001°24'0 0.0
2017-Jul-13 07:29N 50°53' W 001°24'0 0.0
2017-Jul-13 06:56N 50°53' W 001°24'0 0.0
2017-Jul-13 06:29N 50°53' W 001°24'0 0.0
2017-Jul-13 05:50N 50°53' W 001°24'0 0.0
2017-Jul-13 05:29N 50°53' W 001°24'0 0.7
2017-Jul-13 04:57N 50°53' W 001°24'3 7.1
2017-Jul-13 04:30N 50°51' W 001°20'4 7.9
2017-Jul-13 04:00N 50°47' W 001°19'815.3
2017-Jul-13 03:30N 50°45' W 001°07'815.9
2017-Jul-13 03:00N 50°41' W 000°57'4 8.4
2017-Jul-13 02:31N 50°37' W 000°56'714.8
2017-Jul-13 02:00N 50°33' W 001°05'815.9
2017-Jul-13 01:30N 50°29' W 001°17'816.4
2017-Jul-13 01:00N 50°26' W 001°28'917.1
2017-Jul-13 00:30N 50°23' W 001°41'1018.7
2017-Jul-13 00:00N 50°20' W 001°55'1222.2
2017-Jul-12 23:28N 50°16' W 002°12'1022.7
2017-Jul-12 23:00N 50°13' W 002°28'1122.4
2017-Jul-12 22:30N 50°10' W 002°45'1122.4
2017-Jul-12 22:01N 50°07' W 003°01'1122.2
2017-Jul-12 21:31N 50°03' W 003°18'1122.1
2017-Jul-12 21:01N 49°60' W 003°34'1122.2
2017-Jul-12 20:31N 49°57' W 003°51'1223.3
2017-Jul-12 20:00N 49°54' W 004°09'1223.4
2017-Jul-12 19:31N 49°51' W 004°26'1223.5
2017-Jul-12 18:59N 49°47' W 004°44'7121.7
2017-Jul-12 15:42N 49°38' W 006°34'720.4
2017-Jul-12 15:22N 49°39' W 006°44'921.0
2017-Jul-12 14:55N 49°40' W 006°59'16921.3
2017-Jul-12 07:00N 50°06' W 011°18'   010 / 71017.610.8 16.014.314.9
Track history (hours):
 
Tides and Currents Weather Stations Pressure Air Temp Water Temp Dewpoint Dewpoint Depression Visibility Wind Speed Wind Dir Waves Ship Positions

Rms Queen Mary 2

Last reported at 2017-Jul-22 04:32 UTC. Time now 2017-Jul-22 18:33 UTC.
Position N 49°48' W 005°27'.

Length 345 m; draft 10.4 m.

Type: Passenger vessel. MMSI: 310627000.

Date/timePositionNaut miles runAvg speedWind from/ knotsBaromVisibWave heightAir tempDewpointWater temp
2017-Jul-22 04:32N 49°48' W 005°27'018.5
2017-Jul-22 04:30N 49°48' W 005°27'1018.4
2017-Jul-22 03:59N 49°50' W 005°12'918.3
2017-Jul-22 03:30N 49°52' W 004°59'918.5
2017-Jul-22 03:00N 49°54' W 004°45'918.6
2017-Jul-22 02:30N 49°56' W 004°31'1019.2
2017-Jul-22 02:00N 49°58' W 004°16'1019.6
2017-Jul-22 01:30N 50°01' W 004°01'1020.4
2017-Jul-22 01:00N 50°03' W 003°46'1121.4
2017-Jul-22 00:30N 50°06' W 003°30'1121.4
2017-Jul-22 00:00N 50°07' W 003°13'1121.7
2017-Jul-21 23:30N 50°11' W 002°57'1121.7
2017-Jul-21 23:00N 50°14' W 002°41'1121.5
2017-Jul-21 22:30N 50°17' W 002°25'2120.1
2017-Jul-21 21:26N 50°21' W 001°52'818.2
2017-Jul-21 21:01N 50°23' W 001°40'1817.2
2017-Jul-21 19:57N 50°30' W 001°14'815.9
2017-Jul-21 19:29N 50°33' W 001°03'713.6
2017-Jul-21 19:00N 50°38' W 000°57'3 6.6
2017-Jul-21 18:31N 50°41' W 000°57'815.2
2017-Jul-21 18:01N 50°45' W 001°07'714.9
2017-Jul-21 17:30N 50°48' W 001°18'4 8.3
2017-Jul-21 17:00N 50°51' W 001°21'3 5.4
2017-Jul-21 16:30N 50°53' W 001°24'0 0.4
2017-Jul-21 16:00N 50°54' W 001°24'0 0.0
2017-Jul-21 15:03N 50°54' W 001°24'0 0.0
2017-Jul-21 14:57N 50°54' W 001°24'0 0.0
2017-Jul-21 14:21N 50°54' W 001°24'0 0.0
2017-Jul-21 13:57N 50°54' W 001°24'0 0.0
2017-Jul-21 13:18N 50°54' W 001°24'0 0.0
2017-Jul-21 07:18N 50°54' W 001°24'0 0.0
2017-Jul-21 06:45N 50°54' W 001°24'0 0.0
2017-Jul-21 06:27N 50°54' W 001°24'0 0.0
2017-Jul-21 05:19N 50°54' W 001°24'0 1.3
2017-Jul-21 04:57N 50°53' W 001°24'3 7.5
2017-Jul-21 04:30N 50°51' W 001°20'4 8.6
2017-Jul-21 04:01N 50°47' W 001°19'714.5
2017-Jul-21 03:30N 50°45' W 001°07'815.3
2017-Jul-21 03:00N 50°42' W 000°57'510.0
2017-Jul-21 02:31N 50°37' W 000°54'611.9
2017-Jul-21 02:00N 50°33' W 000°47'715.0
2017-Jul-21 01:31N 50°33' W 000°35'918.8
2017-Jul-21 01:00N 50°32' W 000°20'1019.4
2017-Jul-21 00:31N 50°32' W 000°05'1019.7
2017-Jul-21 00:00N 50°33' E 000°11'1019.6
2017-Jul-20 23:30N 50°36' E 000°26'919.1
2017-Jul-20 23:01N 50°39' E 000°39'918.5
2017-Jul-20 22:31N 50°45' E 000°51'1419.6
2017-Jul-20 21:47N 50°52' E 001°11'619.9
2017-Jul-20 21:31N 50°55' E 001°18'1019.1
2017-Jul-20 21:01N 51°02' E 001°28'1019.1
2017-Jul-20 20:31N 51°09' E 001°39'1019.6
2017-Jul-20 20:01N 51°16' E 001°48'1021.0
2017-Jul-20 19:31N 51°25' E 001°57'1121.9
2017-Jul-20 19:01N 51°33' E 002°09'1122.8
2017-Jul-20 18:31N 51°42' E 002°21'3220.8
2017-Jul-20 17:00N 52°12' E 002°36'34921.4 280 / 251009.310.8 17.511.116.5
2017-Jul-20 00:39N 57°58' E 003°59'821.8
2017-Jul-20 00:18N 58°06' E 003°59'721.9
2017-Jul-19 23:59N 58°13' E 003°60'1122.0
2017-Jul-19 23:30N 58°23' E 004°00'1020.6
2017-Jul-19 23:01N 58°33' E 004°01'12421.5
2017-Jul-19 17:15N 60°37' E 004°22'521.6
2017-Jul-19 17:00N 60°41' E 004°28'816.6
2017-Jul-19 16:30N 60°44' E 004°44'714.0
2017-Jul-19 16:00N 60°39' E 004°52'713.4
2017-Jul-19 15:30N 60°32' E 004°56'816.6
2017-Jul-19 15:00N 60°25' E 005°04'5 9.4
2017-Jul-19 14:30N 60°24' E 005°14'2 4.6
2017-Jul-19 14:00N 60°23' E 005°18'0 0.3
2017-Jul-19 13:28N 60°23' E 005°19'0 0.0
2017-Jul-19 12:58N 60°23' E 005°19'0 0.0
2017-Jul-19 12:28N 60°23' E 005°19'0 0.0
2017-Jul-19 11:58N 60°23' E 005°19'0 0.0
2017-Jul-19 11:28N 60°23' E 005°19'0 0.0
2017-Jul-19 10:58N 60°23' E 005°19'0 0.0
2017-Jul-19 10:28N 60°23' E 005°19'0 0.0
2017-Jul-19 09:58N 60°23' E 005°19'0 0.0
2017-Jul-19 09:28N 60°23' E 005°19'0 0.0
2017-Jul-19 08:58N 60°23' E 005°19'0 0.0
2017-Jul-19 08:28N 60°23' E 005°19'0 0.0
2017-Jul-19 07:58N 60°23' E 005°19'0 0.0
2017-Jul-19 07:28N 60°23' E 005°19'0 0.0
2017-Jul-19 06:58N 60°23' E 005°19'0 0.0
2017-Jul-19 06:28N 60°23' E 005°19'0 0.0
2017-Jul-19 05:58N 60°23' E 005°19'0 0.0
2017-Jul-19 05:28N 60°23' E 005°19'0 0.0
2017-Jul-19 04:58N 60°23' E 005°19'0 0.0
2017-Jul-19 04:27N 60°23' E 005°19'1 2.0
2017-Jul-19 04:00N 60°24' E 005°17'4 7.7
2017-Jul-19 03:30N 60°23' E 005°09'510.3
2017-Jul-19 03:00N 60°27' E 005°01'714.8
2017-Jul-19 02:30N 60°34' E 004°55'612.6
2017-Jul-19 02:00N 60°39' E 004°51'713.7
2017-Jul-19 01:30N 60°45' E 004°41'714.2
2017-Jul-19 01:00N 60°45' E 004°27'9 4.2
2017-Jul-18 22:49N 60°52' E 004°16'515.2
2017-Jul-18 22:30N 60°51' E 004°26'815.2
2017-Jul-18 22:00N 60°55' E 004°40'917.0
2017-Jul-18 21:30N 61°01' E 004°52'918.2
2017-Jul-18 21:00N 61°06' E 005°08'917.7
2017-Jul-18 20:30N 61°04' E 005°25'918.0
2017-Jul-18 20:00N 61°07' E 005°42'917.8
2017-Jul-18 19:30N 61°08' E 006°00'917.5
2017-Jul-18 19:00N 61°07' E 006°18'815.7
2017-Jul-18 18:30N 61°09' E 006°34'714.4
2017-Jul-18 18:00N 61°10' E 006°49'816.8
2017-Jul-18 17:30N 61°04' E 007°01'714.1
2017-Jul-18 17:00N 60°57' E 007°07'4 8.2
2017-Jul-18 16:30N 60°53' E 007°09'2 3.0
2017-Jul-18 15:59N 60°52' E 007°07'0 0.2
2017-Jul-18 15:28N 60°52' E 007°07'0 0.0
2017-Jul-18 14:58N 60°52' E 007°07'0 0.0
2017-Jul-18 13:58N 60°52' E 007°07'0 0.0
2017-Jul-18 13:28N 60°52' E 007°07'0 0.0
2017-Jul-18 12:58N 60°52' E 007°07'0 0.0
2017-Jul-18 12:28N 60°52' E 007°07'0 0.0
2017-Jul-18 11:58N 60°52' E 007°07'0 0.0
2017-Jul-18 11:28N 60°52' E 007°07'0 0.0
2017-Jul-18 10:58N 60°52' E 007°07'0 0.0
2017-Jul-18 10:28N 60°52' E 007°07'0 0.0
2017-Jul-18 09:58N 60°52' E 007°07'0 0.0
2017-Jul-18 09:28N 60°52' E 007°07'0 0.0
2017-Jul-18 08:58N 60°52' E 007°07'0 0.0
2017-Jul-18 08:28N 60°52' E 007°07'0 0.0
2017-Jul-18 07:58N 60°52' E 007°07'0 0.0
2017-Jul-18 07:28N 60°52' E 007°07'0 0.0
2017-Jul-18 06:58N 60°52' E 007°07'0 0.0
2017-Jul-18 06:28N 60°52' E 007°07'0 0.0
2017-Jul-18 05:58N 60°52' E 007°07'0 0.1
2017-Jul-18 05:30N 60°52' E 007°07'1 2.3
2017-Jul-18 05:00N 60°53' E 007°08'4 7.8
2017-Jul-18 04:30N 60°57' E 007°10'5 9.6
2017-Jul-18 04:00N 61°00' E 007°03'713.8
2017-Jul-18 03:30N 61°06' E 006°56'714.1
2017-Jul-18 03:00N 61°10' E 006°44'510.1
2017-Jul-18 02:30N 61°09' E 006°34'713.4
2017-Jul-18 02:00N 61°06' E 006°22'814.9
2017-Jul-18 01:30N 61°08' E 006°07'816.6
2017-Jul-18 01:00N 61°08' E 005°50'816.2
2017-Jul-18 00:30N 61°06' E 005°34'715.3
2017-Jul-18 00:00N 61°04' E 005°18'815.9
2017-Jul-17 23:30N 61°09' E 005°05'611.7
2017-Jul-17 23:00N 61°13' E 004°56'917.5
2017-Jul-17 22:30N 61°14' E 004°38'917.1
2017-Jul-17 22:00N 61°16' E 004°21'918.4
2017-Jul-17 21:30N 61°25' E 004°21'917.8
2017-Jul-17 21:00N 61°34' E 004°22'816.4
2017-Jul-17 20:30N 61°42' E 004°24'918.2
2017-Jul-17 20:00N 61°51' E 004°32'917.2
2017-Jul-17 19:30N 61°57' E 004°43'714.7
2017-Jul-17 19:00N 61°57' E 004°59'713.9
2017-Jul-17 18:30N 61°54' E 005°13'816.2
2017-Jul-17 18:00N 61°55' E 005°30'6 0.2
2017-Jul-16 11:34N 61°54' E 005°42'115.6
2017-Jul-16 11:30N 61°54' E 005°40'815.4
2017-Jul-16 11:00N 61°55' E 005°23'714.5
2017-Jul-16 10:30N 61°54' E 005°08'713.6
2017-Jul-16 10:00N 61°58' E 004°56'714.4
2017-Jul-16 09:29N 61°57' E 004°40'714.9
2017-Jul-16 09:00N 61°51' E 004°30'816.9
2017-Jul-16 08:30N 61°44' E 004°23'6217.6
2017-Jul-16 05:00N 60°42' E 004°12'9316.3 250 / 171009.310.8 16.010.312.3
2017-Jul-15 23:17N 59°11' E 004°48'517.7
2017-Jul-15 23:00N 59°08' E 004°56'817.1
2017-Jul-15 22:30N 59°06' E 005°12'816.9
2017-Jul-15 22:00N 59°07' E 005°29'815.7
2017-Jul-15 21:31N 59°01' E 005°39'3 6.3
2017-Jul-15 20:58N 58°58' E 005°44'0 0.0
2017-Jul-15 20:28N 58°58' E 005°44'0 0.0
2017-Jul-15 19:58N 58°58' E 005°44'0 0.0
2017-Jul-15 19:28N 58°58' E 005°44'0 0.0
2017-Jul-15 18:58N 58°58' E 005°44'0 0.0
2017-Jul-15 18:28N 58°58' E 005°44'0 0.0
2017-Jul-15 17:58N 58°58' E 005°44'0 0.0
2017-Jul-15 17:28N 58°58' E 005°44'0 0.0
2017-Jul-15 16:58N 58°58' E 005°44'0 0.0
2017-Jul-15 16:28N 58°58' E 005°44'0 0.0
2017-Jul-15 15:58N 58°58' E 005°44'0 0.0
2017-Jul-15 15:28N 58°58' E 005°44'0 0.0
2017-Jul-15 14:58N 58°58' E 005°44'0 0.0
2017-Jul-15 13:58N 58°58' E 005°44'0 0.0
2017-Jul-15 13:28N 58°58' E 005°44'0 0.0
2017-Jul-15 12:58N 58°58' E 005°44'0 0.0
2017-Jul-15 12:28N 58°58' E 005°44'0 0.0
2017-Jul-15 11:58N 58°58' E 005°44'0 0.0
2017-Jul-15 11:28N 58°58' E 005°44'0 0.0
2017-Jul-15 10:58N 58°58' E 005°44'0 0.0
2017-Jul-15 10:28N 58°58' E 005°44'0 0.0
2017-Jul-15 09:58N 58°58' E 005°44'0 0.0
2017-Jul-15 09:28N 58°58' E 005°44'0 0.0
2017-Jul-15 08:58N 58°58' E 005°44'0 0.0
2017-Jul-15 08:28N 58°58' E 005°44'0 0.0
2017-Jul-15 07:58N 58°58' E 005°44'0 0.0
2017-Jul-15 07:28N 58°58' E 005°44'0 0.0
2017-Jul-15 06:58N 58°58' E 005°44'0 0.0
2017-Jul-15 06:28N 58°58' E 005°44'0 0.0
2017-Jul-15 06:00N 58°58' E 005°44'0 0.3
2017-Jul-15 05:30N 58°59' E 005°44'3 6.5
2017-Jul-15 05:00N 59°01' E 005°39'714.6
2017-Jul-15 04:30N 59°06' E 005°30'611.5
2017-Jul-15 04:00N 59°04' E 005°19'510.8
2017-Jul-15 03:30N 59°01' E 005°11'714.6
2017-Jul-15 03:00N 58°54' E 005°08'714.8
2017-Jul-15 02:31N 58°47' E 005°06'714.6
2017-Jul-15 02:00N 58°39' E 005°04'714.6
2017-Jul-15 01:30N 58°32' E 005°02'917.7
2017-Jul-15 01:00N 58°23' E 004°59'35118.4
2017-Jul-14 06:00N 52°42' E 002°36'6418.4 270 / 201014.610.8 17.213.315.7
2017-Jul-14 02:30N 51°38' E 002°23'1021.1
2017-Jul-14 02:00N 51°30' E 002°13'1020.9
2017-Jul-14 01:30N 51°21' E 002°03'1121.1
2017-Jul-14 01:00N 51°14' E 001°51'1021.0
2017-Jul-14 00:30N 51°06' E 001°40'1020.8
2017-Jul-14 00:00N 50°58' E 001°30'1019.9
2017-Jul-13 23:30N 50°49' E 001°23'1019.5
2017-Jul-13 23:00N 50°40' E 001°16'1020.7
2017-Jul-13 22:30N 50°33' E 001°04'1120.5
2017-Jul-13 21:59N 50°29' E 000°49'1020.8
2017-Jul-13 21:30N 50°27' E 000°33'1120.6
2017-Jul-13 20:58N 50°24' E 000°17'920.3
2017-Jul-13 20:30N 50°22' E 000°02'1019.7
2017-Jul-13 20:00N 50°24' W 000°13'1019.6
2017-Jul-13 19:30N 50°28' W 000°26'918.5
2017-Jul-13 19:00N 50°33' W 000°39'917.7
2017-Jul-13 18:30N 50°37' W 000°51'612.5
2017-Jul-13 18:00N 50°42' W 000°57'917.2
2017-Jul-13 17:30N 50°46' W 001°10'611.7
2017-Jul-13 17:01N 50°48' W 001°18'5 9.6
2017-Jul-13 16:30N 50°52' W 001°22'2 3.6
2017-Jul-13 15:59N 50°53' W 001°24'0 0.0
2017-Jul-13 15:26N 50°53' W 001°24'0 0.0
2017-Jul-13 14:59N 50°53' W 001°24'0 0.0
2017-Jul-13 14:29N 50°53' W 001°24'0 0.0
2017-Jul-13 13:59N 50°53' W 001°24'0 0.0
2017-Jul-13 13:20N 50°53' W 001°24'0 0.0
2017-Jul-13 12:50N 50°53' W 001°24'0 0.0
2017-Jul-13 12:26N 50°53' W 001°24'0 0.0
2017-Jul-13 11:50N 50°53' W 001°24'0 0.0
2017-Jul-13 11:29N 50°53' W 001°24'0 0.0
2017-Jul-13 10:56N 50°53' W 001°24'0 0.0
2017-Jul-13 10:20N 50°53' W 001°24'0 0.0
2017-Jul-13 09:47N 50°53' W 001°24'0 0.0
2017-Jul-13 09:29N 50°53' W 001°24'0 0.0
2017-Jul-13 08:56N 50°53' W 001°24'0 0.0
2017-Jul-13 08:29N 50°53' W 001°24'0 0.0
2017-Jul-13 07:56N 50°53' W 001°24'0 0.0
2017-Jul-13 07:29N 50°53' W 001°24'0 0.0
2017-Jul-13 06:56N 50°53' W 001°24'0 0.0
2017-Jul-13 06:29N 50°53' W 001°24'0 0.0
2017-Jul-13 05:50N 50°53' W 001°24'0 0.0
2017-Jul-13 05:29N 50°53' W 001°24'0 0.7
2017-Jul-13 04:57N 50°53' W 001°24'3 7.1
2017-Jul-13 04:30N 50°51' W 001°20'4 7.9
2017-Jul-13 04:00N 50°47' W 001°19'815.3
2017-Jul-13 03:30N 50°45' W 001°07'815.9
2017-Jul-13 03:00N 50°41' W 000°57'4 8.4
2017-Jul-13 02:31N 50°37' W 000°56'714.8
2017-Jul-13 02:00N 50°33' W 001°05'815.9
2017-Jul-13 01:30N 50°29' W 001°17'816.4
2017-Jul-13 01:00N 50°26' W 001°28'917.1
2017-Jul-13 00:30N 50°23' W 001°41'1018.7
2017-Jul-13 00:00N 50°20' W 001°55'1222.2
2017-Jul-12 23:28N 50°16' W 002°12'1022.7
2017-Jul-12 23:00N 50°13' W 002°28'1122.4
2017-Jul-12 22:30N 50°10' W 002°45'1122.4
2017-Jul-12 22:01N 50°07' W 003°01'1122.2
2017-Jul-12 21:31N 50°03' W 003°18'1122.1
2017-Jul-12 21:01N 49°60' W 003°34'1122.2
2017-Jul-12 20:31N 49°57' W 003°51'1223.3
2017-Jul-12 20:00N 49°54' W 004°09'1223.4
2017-Jul-12 19:31N 49°51' W 004°26'1223.5
2017-Jul-12 18:59N 49°47' W 004°44'7121.7
2017-Jul-12 15:42N 49°38' W 006°34'720.4
2017-Jul-12 15:22N 49°39' W 006°44'921.0
2017-Jul-12 14:55N 49°40' W 006°59'16921.3
2017-Jul-12 07:00N 50°06' W 011°18'   010 / 71017.610.8 16.014.314.9

Dump ship's entire track history